1952 Tropical Low NOT_NAMED (1952018S15114)


IBTrACS version v04r00. Visit IBTrACS website for data access.
Please direct all questions to the IBTrACS Q and A forum

Storm track - Intensity - Wind Radii - Intensity Data - Source Data - All data

Summary Information

Storm ID 1952018S15114
Start Jan 17 23Z
Landfall Jan 21 09Z
Max Intensity 975 mb (Jan 21 01Z)
End Jan 23 01Z
ATCF IDs ,SH081952
Track status Best track data.

Storm track plot

Map of storm track

Intensity plots

Map of storm track

Radial wind information

No radial wind information for this storm


Position and Intensity Table

BASIN ISO_TIME_________ NATURE LAT LON WMO PRES BOM PRES
degrees north degrees east mb mb
SI 1952-01-17 23:00:00 NR -15.20 114.10
SI 1952-01-18 00:00:00 TS -15.12 114.09
SI 01:00:00 TS -14.73 113.80 1000 1000
SI 03:00:00 TS -14.51 113.67
SI 06:00:00 TS -14.27 113.55
SI 09:00:00 TS -14.01 113.41
SI 11:00:00 TS -13.92 113.36
SI 12:00:00 TS -13.88 113.33
SI 15:00:00 TS -13.75 113.21
SI 18:00:00 TS -13.68 113.07
SI 21:00:00 TS -13.69 112.95
SI 23:00:00 TS -13.75 112.89
SI 1952-01-19 00:00:00 TS -13.75 112.84
SI 01:00:00 TS -13.77 112.80 990 990
SI 03:00:00 TS -13.88 112.74
SI 06:00:00 TS -14.11 112.69
SI 09:00:00 TS -14.38 112.68
SI 11:00:00 TS -14.56 112.70
SI 12:00:00 TS -14.64 112.71
SI 15:00:00 TS -14.89 112.74
SI 18:00:00 TS -15.16 112.82
SI 21:00:00 TS -15.45 112.94
SI 23:00:00 TS -15.67 113.06
SI 1952-01-20 00:00:00 TS -15.79 113.13
SI 01:00:00 TS -15.91 113.20 985 985
SI 03:00:00 TS -16.18 113.36
SI 06:00:00 TS -16.61 113.63
SI 09:00:00 TS -17.05 113.90
SI 11:00:00 TS -17.34 114.07
SI 12:00:00 TS -17.49 114.15
SI 15:00:00 TS -17.93 114.37
SI 18:00:00 TS -18.37 114.58
SI 21:00:00 TS -18.80 114.82
SI 23:00:00 TS -19.12 114.98
SI 1952-01-21 00:00:00 TS -19.31 115.06
SI 01:00:00 TS -19.51 115.13 975 975
SI 03:00:00 TS -19.95 115.25 975
SI 06:00:00 TS -20.67 115.45 975
SI 07:50:00 TS -21.10 115.58 975 975
SI 09:00:00 TS -21.37 115.66
SI 11:00:00 TS -21.82 115.80
SI 12:00:00 TS -22.04 115.87
SI 15:00:00 TS -22.64 116.06
SI 18:00:00 TS -23.24 116.30
SI 21:00:00 TS -23.86 116.62
SI 23:00:00 TS -24.32 116.93
SI 1952-01-22 00:00:00 TS -24.57 117.13
SI 01:00:00 TS -24.83 117.36 985 985
SI 03:00:00 TS -25.40 117.90
SI 06:00:00 TS -26.27 118.92
SI 07:00:00 TS -26.54 119.32
SI 09:00:00 TS -27.06 120.17
SI 11:00:00 TS -27.54 121.12
SI 12:00:00 TS -27.69 121.72
SI 15:00:00 TS -28.22 123.41
SI 18:00:00 TS -28.78 125.11
SI 21:00:00 TS -29.47 126.75
SI 22:00:00 TS -29.80 127.18
SI 23:00:00 TS -30.19 127.53
SI 1952-01-23 00:00:00 TS -30.69 127.81
SI 01:00:00 NR -31.20 127.90 995 995

Source Information

Agency Information
USA bsh081952.txt
TOKYO
CMA
HKO
NEWDELHI
REUNION
BOM IDCKMSTM0S.csv:Line=1714:unnamed
NADI
WELLINGTON
DS824 s_hem.dat:574:08S
TD9636 cons_worldwide_trop_cyclone_18710101-19891231-006:Line=3859
TD9635
NEUMANN
MLC

All available IBTrACS Data

SEASON BASIN SUBBASIN ISO_TIME_________ NATURE LAT LON WMO PRES WMO AGENCY DIST2LAND LANDFALL IFLAG USA AGENCY USA ATCF_ID USA LAT USA LON USA SSHS BOM LAT BOM LON BOM PRES BOM PRES_METHOD DS824 LAT DS824 LON DS824 STAGE TD9636 LAT TD9636 LON TD9636 STAGE STORM SPEED STORM DIR
Year degrees north degrees east mb km km degrees north degrees east 1 degrees north degrees east mb degrees north degrees east degrees north degrees east kts degrees
1952 SI WA 1952-01-17 23:00:00 NR -15.20 114.10 663 663 __________O___ -1 -15.20 114.10 7 5 0
1952 SI WA 1952-01-18 00:00:00 TS -15.12 114.09 674 674 O________OP___ jtwc_sh SH081952 -15.10 114.10 -1 -15.10 114.10 TC -15.13 114.08 7 17 329
1952 SI WA 01:00:00 TS -14.73 113.80 1000 bom 666 645 P_____O__PP___ SH081952 -15.03 114.06 -1 -12.50 112.00 1000 -15.03 114.06 TC -15.06 114.05 7 15 326
1952 SI WA 03:00:00 TS -14.51 113.67 645 625 P_____P__PP___ SH081952 -14.90 113.99 -1 -12.51 112.05 -14.90 113.99 TC -14.93 114.00 7 6 332
1952 SI WA 06:00:00 TS -14.27 113.55 627 596 O_____P__OP___ jtwc_sh SH081952 -14.70 113.90 -1 -12.52 112.13 -14.70 113.90 TC -14.73 113.91 7 6 333
1952 SI WA 09:00:00 TS -14.01 113.41 596 585 P_____P__PP___ SH081952 -14.49 113.82 -1 -12.54 112.21 -14.49 113.82 TC -14.53 113.80 7 5 333
1952 SI WA 11:00:00 TS -13.92 113.36 585 585 P_____P__PO___ SH081952 -14.36 113.74 -1 -12.56 112.26 -14.36 113.74 TC -14.40 113.70 7 3 329
1952 SI WA 12:00:00 TS -13.88 113.33 588 577 O_____P__OP___ jtwc_sh SH081952 -14.30 113.70 -1 -12.57 112.28 -14.30 113.70 TC -14.34 113.65 7 3 318
1952 SI WA 15:00:00 TS -13.75 113.21 580 569 P_____P__PP___ SH081952 -14.11 113.51 -1 -12.63 112.35 -14.11 113.51 TC -14.16 113.46 7 3 307
1952 SI WA 18:00:00 TS -13.68 113.07 572 572 O_____P__OP___ jtwc_sh SH081952 -14.00 113.30 -1 -12.70 112.40 -14.00 113.30 TC -14.03 113.27 7 3 284
1952 SI WA 21:00:00 TS -13.69 112.95 575 575 P_____P__PP___ SH081952 -13.99 113.14 -1 -12.81 112.45 -13.99 113.14 TC -13.98 113.10 7 2 249
1952 SI WA 23:00:00 TS -13.75 112.89 579 579 P_____P__PO___ SH081952 -14.05 113.04 -1 -12.90 112.48 -14.05 113.04 TC -14.00 113.00 7 2 242
1952 SI WA 1952-01-19 00:00:00 TS -13.75 112.84 581 581 O_____P__OP___ jtwc_sh SH081952 -14.10 113.00 -1 -12.95 112.49 -14.10 113.00 TC -14.04 112.96 7 3 258
1952 SI WA 01:00:00 TS -13.77 112.80 990 bom 592 592 P_____O__PP___ SH081952 -14.16 112.96 -1 -13.00 112.50 990 -14.16 112.96 TC -14.09 112.92 7 3 217
1952 SI WA 03:00:00 TS -13.88 112.74 605 605 P_____P__PP___ SH081952 -14.32 112.88 -1 -13.12 112.52 -14.32 112.88 TC -14.23 112.86 7 4 197
1952 SI WA 06:00:00 TS -14.11 112.69 627 627 O_____P__OP___ jtwc_sh SH081952 -14.60 112.80 -1 -13.34 112.53 -14.60 112.80 TC -14.50 112.80 7 5 186
1952 SI WA 09:00:00 TS -14.38 112.68 660 660 P_____P__PP___ SH081952 -14.86 112.78 -1 -13.59 112.55 -14.86 112.78 TC -14.80 112.79 7 5 179
1952 SI WA 11:00:00 TS -14.56 112.70 681 681 P_____P__PO___ SH081952 -15.02 112.79 -1 -13.78 112.56 -15.02 112.79 TC -15.00 112.80 7 5 0
1952 SI WA 12:00:00 TS -14.64 112.71 681 681 O_____P__OP___ jtwc_sh SH081952 -15.10 112.80 -1 -13.89 112.57 -15.10 112.80 TC -15.07 112.80 7 5 173
1952 SI WA 15:00:00 TS -14.89 112.74 713 710 P_____P__PP___ SH081952 -15.30 112.82 -1 -14.22 112.60 -15.30 112.82 TC -15.28 112.85 7 5 169
1952 SI WA 18:00:00 TS -15.16 112.82 731 707 O_____P__OP___ jtwc_sh SH081952 -15.50 112.90 -1 -14.59 112.66 -15.50 112.90 TC -15.49 112.94 7 6 161
1952 SI WA 21:00:00 TS -15.45 112.94 697 672 P_____P__PP___ SH081952 -15.73 113.06 -1 -15.00 112.74 -15.73 113.06 TC -15.72 113.08 7 7 156
1952 SI WA 23:00:00 TS -15.67 113.06 667 657 P_____P__PO___ SH081952 -15.90 113.21 -1 -15.29 112.81 -15.90 113.21 TC -15.90 113.20 7 8 152
1952 SI WA 1952-01-20 00:00:00 TS -15.79 113.13 657 642 O_____P__OP___ jtwc_sh SH081952 -16.00 113.30 -1 -15.44 112.85 -16.00 113.30 TC -16.00 113.27 7 8 151
1952 SI WA 01:00:00 TS -15.91 113.20 985 bom 642 608 P_____O__PP___ SH081952 -16.11 113.39 -1 -15.60 112.90 985 -16.11 113.39 TC -16.10 113.35 7 9 150
1952 SI WA 03:00:00 TS -16.18 113.36 602 553 P_____P__PP___ SH081952 -16.34 113.59 -1 -15.94 113.04 -16.34 113.59 TC -16.33 113.53 7 10 149
1952 SI WA 06:00:00 TS -16.61 113.63 553 498 O_____P__OP___ jtwc_sh SH081952 -16.70 113.90 -1 -16.48 113.29 -16.70 113.90 TC -16.68 113.83 7 10 149
1952 SI WA 09:00:00 TS -17.05 113.90 498 459 P_____P__PP___ SH081952 -17.05 114.17 -1 -17.06 113.57 -17.05 114.17 TC -17.05 114.12 7 10 150
1952 SI WA 11:00:00 TS -17.34 114.07 459 439 P_____P__PO___ SH081952 -17.28 114.33 -1 -17.46 113.77 -17.28 114.33 TC -17.30 114.30 7 10 152
1952 SI WA 12:00:00 TS -17.49 114.15 434 385 O_____P__OP___ jtwc_sh SH081952 -17.40 114.40 -1 -17.66 113.87 -17.40 114.40 TC -17.40 114.37 7 10 154
1952 SI WA 15:00:00 TS -17.93 114.37 385 335 P_____P__PP___ SH081952 -17.75 114.56 -1 -18.27 114.18 -17.75 114.56 TC -17.67 114.56 7 10 155
1952 SI WA 18:00:00 TS -18.37 114.58 325 276 O_____P__OP___ jtwc_sh SH081952 -18.10 114.70 -1 -18.88 114.49 -18.10 114.70 TC -17.98 114.72 7 10 154
1952 SI WA 21:00:00 TS -18.80 114.82 276 237 P_____P__PP___ SH081952 -18.38 114.89 -1 -19.47 114.77 -18.38 114.89 TC -18.37 114.88 7 10 154
1952 SI WA 23:00:00 TS -19.12 114.98 237 218 P_____P__PO___ SH081952 -18.63 115.03 -1 -19.84 114.95 -18.63 115.03 TC -18.70 115.00 7 11 156
1952 SI WA 1952-01-21 00:00:00 TS -19.31 115.06 212 194 O_____P__OP___ jtwc_sh SH081952 -18.80 115.10 -1 -20.02 115.03 -18.80 115.10 TC -18.91 115.07 7 12 160
1952 SI WA 01:00:00 TS -19.51 115.13 975 bom 194 152 P_____O__PP___ SH081952 -19.02 115.16 -1 -20.20 115.10 975 4 -19.02 115.16 TC -19.13 115.14 7 13 164
1952 SI WA 03:00:00 TS -19.95 115.25 137 76 P_____P__PP___ SH081952 -19.53 115.29 -1 -20.52 115.21 975 -19.53 115.29 TC -19.63 115.28 7 14 165
1952 SI WA 06:00:00 TS -20.67 115.45 68 23 O_____P__OP___ jtwc_sh SH081952 -20.40 115.50 -1 -21.00 115.38 975 -20.40 115.50 TC -20.44 115.51 7 15 165
1952 SI WA 07:50:00 TS -21.10 115.58 975 bom 23 0 P_____O__PP___ SH081952 -20.90 115.65 -1 -21.30 115.50 975 -20.90 115.65 TC -20.95 115.65 7 15 164
1952 SI WA 09:00:00 TS -21.37 115.66 0 0 P_____P__PP___ SH081952 -21.22 115.75 -1 -21.49 115.54 -21.22 115.75 TC -21.27 115.74 7 14 164
1952 SI WA 11:00:00 TS -21.82 115.80 0 0 P_____P__PO___ SH081952 -21.75 115.92 -1 -21.81 115.59 -21.75 115.92 TC -21.80 115.90 7 14 164
1952 SI WA 12:00:00 TS -22.04 115.87 0 0 O_____P__OP___ jtwc_sh SH081952 -22.00 116.00 -1 -21.98 115.62 -22.00 116.00 TC -22.02 115.95 7 13 164
1952 SI WA 15:00:00 TS -22.64 116.06 0 0 P_____P__PP___ SH081952 -22.66 116.20 -1 -22.48 115.74 -22.66 116.20 TC -22.64 116.07 7 13 162
1952 SI WA 18:00:00 TS -23.24 116.30 0 0 O_____P__OP___ jtwc_sh SH081952 -23.30 116.40 -1 -23.03 115.98 -23.30 116.40 TC -23.25 116.23 7 13 157
1952 SI WA 21:00:00 TS -23.86 116.62 0 0 P_____P__PP___ SH081952 -23.95 116.57 -1 -23.62 116.42 -23.95 116.57 TC -23.91 116.51 7 15 152
1952 SI WA 23:00:00 TS -24.32 116.93 0 0 P_____P__PO___ SH081952 -24.44 116.76 -1 -24.04 116.88 -24.44 116.76 TC -24.40 116.80 7 17 147
1952 SI WA 1952-01-22 00:00:00 TS -24.57 117.13 0 0 O_____P__OP___ jtwc_sh SH081952 -24.70 116.90 -1 -24.27 117.17 -24.70 116.90 TC -24.70 116.96 7 19 143
1952 SI WA 01:00:00 TS -24.83 117.36 985 bom 0 0 P_____O__PP___ SH081952 -24.99 117.07 -1 -24.50 117.50 985 -24.99 117.07 TC -25.01 117.15 7 22 140
1952 SI WA 03:00:00 TS -25.40 117.90 0 0 P_____P__PP___ SH081952 -25.62 117.52 -1 -25.00 118.29 -25.62 117.52 TC -25.67 117.59 7 24 135
1952 SI WA 06:00:00 TS -26.27 118.92 0 0 O_____P__OP___ jtwc_sh SH081952 -26.60 118.40 -1 -25.76 119.70 -26.60 118.40 TC -26.68 118.41 7 26 132
1952 SI WA 07:00:00 TS -26.54 119.32 bom 0 0 P_____O__PP___ SH081952 -26.92 118.72 -1 -26.00 120.20 -26.92 118.72 TC -27.01 118.74 7 27 125
1952 SI WA 09:00:00 TS -27.06 120.17 0 0 P_____P__PP___ SH081952 -27.55 119.43 -1 -26.37 121.26 -27.55 119.43 TC -27.64 119.47 7 28 122
1952 SI WA 11:00:00 TS -27.54 121.12 0 0 P_____P__PO___ SH081952 -28.14 120.25 -1 -26.70 122.37 -28.14 120.25 TC -28.20 120.30 7 30 115
1952 SI WA 12:00:00 TS -27.69 121.72 0 0 O_____P__OP___ jtwc_sh SH081952 -28.40 120.70 -1 -26.87 122.93 -28.40 120.70 TC -28.45 120.76 7 32 109
1952 SI WA 15:00:00 TS -28.22 123.41 0 0 P_____P__PP___ SH081952 -29.06 122.19 -1 -27.42 124.57 -29.06 122.19 TC -29.07 122.28 7 32 110
1952 SI WA 18:00:00 TS -28.78 125.11 bom 0 0 O_____O__OP___ jtwc_sh SH081952 -29.60 123.80 -1 -28.20 126.00 -29.60 123.80 TC -29.54 123.97 7 32 113
1952 SI WA 21:00:00 TS -29.47 126.75 0 0 ______P___P___ SH081952 -1 -29.27 127.22 TC -29.90 125.77 7 31 119
1952 SI WA 22:00:00 TS -29.80 127.18 bom 0 0 ______O___P___ SH081952 -1 -29.70 127.50 TC -30.00 126.38 7 30 136
1952 SI WA 23:00:00 TS -30.19 127.53 0 0 ______P___O___ SH081952 -1 -30.17 127.69 TC -30.10 127.00 7 31 149
1952 SI WA 1952-01-23 00:00:00 TS -30.69 127.81 0 0 ______P_______ -1 -30.68 127.81 7 32 162
1952 SI WA 01:00:00 NR -31.20 127.90 995 bom 0 ______O_______ -1 -31.20 127.90 995 7 31 172